sensor_id;sensor_type;location;lat;lon;timestamp;P1;durP1;ratioP1;P2;durP2;ratioP2
74245;SDS011;62601;51.044;13.788;2024-01-15T00:01:09;11.93;;;6.30;;
74245;SDS011;62601;51.044;13.788;2024-01-15T00:03:29;9.52;;;5.50;;
74245;SDS011;62601;51.044;13.788;2024-01-15T00:05:49;8.27;;;5.82;;
74245;SDS011;62601;51.044;13.788;2024-01-15T00:08:09;8.65;;;5.70;;
74245;SDS011;62601;51.044;13.788;2024-01-15T00:10:29;11.20;;;5.47;;
74245;SDS011;62601;51.044;13.788;2024-01-15T00:12:50;10.75;;;5.45;;
74245;SDS011;62601;51.044;13.788;2024-01-15T00:15:11;9.38;;;6.30;;
74245;SDS011;62601;51.044;13.788;2024-01-15T00:17:32;8.65;;;5.53;;
74245;SDS011;62601;51.044;13.788;2024-01-15T00:19:54;10.13;;;6.60;;
74245;SDS011;62601;51.044;13.788;2024-01-15T00:22:15;11.35;;;6.55;;
74245;SDS011;62601;51.044;13.788;2024-01-15T00:24:38;13.15;;;6.65;;
74245;SDS011;62601;51.044;13.788;2024-01-15T00:27:03;10.35;;;5.93;;
74245;SDS011;62601;51.044;13.788;2024-01-15T00:29:24;12.38;;;7.05;;
74245;SDS011;62601;51.044;13.788;2024-01-15T00:31:44;10.68;;;7.15;;
74245;SDS011;62601;51.044;13.788;2024-01-15T00:34:05;12.57;;;7.25;;
74245;SDS011;62601;51.044;13.788;2024-01-15T00:36:26;10.70;;;6.50;;
74245;SDS011;62601;51.044;13.788;2024-01-15T00:38:47;11.20;;;6.65;;
74245;SDS011;62601;51.044;13.788;2024-01-15T00:41:08;12.32;;;7.47;;
74245;SDS011;62601;51.044;13.788;2024-01-15T00:43:30;11.40;;;7.10;;
74245;SDS011;62601;51.044;13.788;2024-01-15T00:45:52;13.55;;;5.65;;
74245;SDS011;62601;51.044;13.788;2024-01-15T00:48:13;10.50;;;6.45;;
74245;SDS011;62601;51.044;13.788;2024-01-15T00:50:34;8.45;;;4.65;;
74245;SDS011;62601;51.044;13.788;2024-01-15T00:52:56;10.60;;;5.95;;
74245;SDS011;62601;51.044;13.788;2024-01-15T00:55:16;12.02;;;5.85;;
74245;SDS011;62601;51.044;13.788;2024-01-15T00:57:41;9.27;;;5.30;;
74245;SDS011;62601;51.044;13.788;2024-01-15T01:00:03;10.68;;;5.85;;
74245;SDS011;62601;51.044;13.788;2024-01-15T01:02:24;9.85;;;5.85;;
74245;SDS011;62601;51.044;13.788;2024-01-15T01:04:44;10.95;;;6.80;;
74245;SDS011;62601;51.044;13.788;2024-01-15T01:07:06;10.40;;;5.90;;
74245;SDS011;62601;51.044;13.788;2024-01-15T01:09:26;8.95;;;5.32;;
74245;SDS011;62601;51.044;13.788;2024-01-15T01:11:47;10.45;;;6.10;;
74245;SDS011;62601;51.044;13.788;2024-01-15T01:14:08;10.90;;;5.88;;
74245;SDS011;62601;51.044;13.788;2024-01-15T01:16:30;8.90;;;5.68;;
74245;SDS011;62601;51.044;13.788;2024-01-15T01:18:51;10.43;;;6.65;;
74245;SDS011;62601;51.044;13.788;2024-01-15T01:21:15;8.73;;;6.05;;
74245;SDS011;62601;51.044;13.788;2024-01-15T01:23:36;9.48;;;6.05;;
74245;SDS011;62601;51.044;13.788;2024-01-15T01:25:58;10.57;;;5.55;;
74245;SDS011;62601;51.044;13.788;2024-01-15T01:28:19;10.15;;;6.43;;
74245;SDS011;62601;51.044;13.788;2024-01-15T01:30:40;9.38;;;5.80;;
74245;SDS011;62601;51.044;13.788;2024-01-15T01:33:02;9.82;;;5.63;;
74245;SDS011;62601;51.044;13.788;2024-01-15T01:35:23;10.82;;;6.60;;
74245;SDS011;62601;51.044;13.788;2024-01-15T01:37:45;10.80;;;6.45;;
74245;SDS011;62601;51.044;13.788;2024-01-15T01:40:08;14.20;;;6.90;;
74245;SDS011;62601;51.044;13.788;2024-01-15T01:42:29;11.60;;;6.55;;
74245;SDS011;62601;51.044;13.788;2024-01-15T01:44:50;11.57;;;7.00;;
74245;SDS011;62601;51.044;13.788;2024-01-15T01:47:12;11.45;;;6.63;;
74245;SDS011;62601;51.044;13.788;2024-01-15T01:49:32;9.55;;;7.05;;
74245;SDS011;62601;51.044;13.788;2024-01-15T01:51:57;10.20;;;6.10;;
74245;SDS011;62601;51.044;13.788;2024-01-15T01:54:19;7.38;;;5.93;;
74245;SDS011;62601;51.044;13.788;2024-01-15T01:56:40;11.30;;;6.53;;
74245;SDS011;62601;51.044;13.788;2024-01-15T01:59:02;11.00;;;6.72;;
74245;SDS011;62601;51.044;13.788;2024-01-15T02:01:24;12.40;;;6.95;;
74245;SDS011;62601;51.044;13.788;2024-01-15T02:03:46;12.00;;;6.43;;
74245;SDS011;62601;51.044;13.788;2024-01-15T02:06:06;12.88;;;6.55;;
74245;SDS011;62601;51.044;13.788;2024-01-15T02:08:28;10.75;;;6.25;;
74245;SDS011;62601;51.044;13.788;2024-01-15T02:10:50;10.52;;;6.10;;
74245;SDS011;62601;51.044;13.788;2024-01-15T02:13:12;10.32;;;6.65;;
74245;SDS011;62601;51.044;13.788;2024-01-15T02:15:32;15.00;;;7.72;;
74245;SDS011;62601;51.044;13.788;2024-01-15T02:18:05;12.70;;;6.97;;
74245;SDS011;62601;51.044;13.788;2024-01-15T02:20:26;13.07;;;7.25;;
74245;SDS011;62601;51.044;13.788;2024-01-15T02:22:46;11.40;;;6.65;;
74245;SDS011;62601;51.044;13.788;2024-01-15T02:25:07;11.13;;;6.40;;
74245;SDS011;62601;51.044;13.788;2024-01-15T02:27:29;10.90;;;6.22;;
74245;SDS011;62601;51.044;13.788;2024-01-15T02:29:50;14.05;;;7.32;;
74245;SDS011;62601;51.044;13.788;2024-01-15T02:32:11;11.98;;;7.43;;
74245;SDS011;62601;51.044;13.788;2024-01-15T02:34:32;11.05;;;6.72;;
74245;SDS011;62601;51.044;13.788;2024-01-15T02:36:53;10.82;;;6.45;;
74245;SDS011;62601;51.044;13.788;2024-01-15T02:39:14;12.70;;;7.47;;
74245;SDS011;62601;51.044;13.788;2024-01-15T02:41:36;11.32;;;6.43;;
74245;SDS011;62601;51.044;13.788;2024-01-15T02:43:56;13.70;;;6.70;;
74245;SDS011;62601;51.044;13.788;2024-01-15T02:46:16;14.50;;;8.30;;
74245;SDS011;62601;51.044;13.788;2024-01-15T02:48:37;10.23;;;6.63;;
74245;SDS011;62601;51.044;13.788;2024-01-15T02:50:59;11.45;;;6.10;;
74245;SDS011;62601;51.044;13.788;2024-01-15T02:53:20;14.35;;;6.90;;
74245;SDS011;62601;51.044;13.788;2024-01-15T02:55:40;11.43;;;6.97;;
74245;SDS011;62601;51.044;13.788;2024-01-15T02:58:03;11.63;;;6.38;;
74245;SDS011;62601;51.044;13.788;2024-01-15T03:00:24;12.73;;;6.70;;
74245;SDS011;62601;51.044;13.788;2024-01-15T03:02:45;11.73;;;6.47;;
74245;SDS011;62601;51.044;13.788;2024-01-15T03:05:07;11.10;;;7.00;;
74245;SDS011;62601;51.044;13.788;2024-01-15T03:07:29;12.05;;;6.70;;
74245;SDS011;62601;51.044;13.788;2024-01-15T03:09:51;12.05;;;7.45;;
74245;SDS011;62601;51.044;13.788;2024-01-15T03:12:12;13.48;;;6.55;;
74245;SDS011;62601;51.044;13.788;2024-01-15T03:14:35;11.85;;;6.53;;
74245;SDS011;62601;51.044;13.788;2024-01-15T03:16:56;13.48;;;7.45;;
74245;SDS011;62601;51.044;13.788;2024-01-15T03:19:18;12.32;;;6.95;;
74245;SDS011;62601;51.044;13.788;2024-01-15T03:21:39;10.80;;;7.03;;
74245;SDS011;62601;51.044;13.788;2024-01-15T03:24:01;11.80;;;7.32;;
74245;SDS011;62601;51.044;13.788;2024-01-15T03:26:22;12.45;;;7.63;;
74245;SDS011;62601;51.044;13.788;2024-01-15T03:28:44;13.00;;;7.78;;
74245;SDS011;62601;51.044;13.788;2024-01-15T03:31:04;13.05;;;7.93;;
74245;SDS011;62601;51.044;13.788;2024-01-15T03:33:24;12.85;;;7.47;;
74245;SDS011;62601;51.044;13.788;2024-01-15T03:35:45;15.88;;;7.00;;
74245;SDS011;62601;51.044;13.788;2024-01-15T03:38:07;14.45;;;7.65;;
74245;SDS011;62601;51.044;13.788;2024-01-15T03:40:29;12.50;;;6.45;;
74245;SDS011;62601;51.044;13.788;2024-01-15T03:42:50;13.02;;;7.00;;
74245;SDS011;62601;51.044;13.788;2024-01-15T03:45:11;13.77;;;8.02;;
74245;SDS011;62601;51.044;13.788;2024-01-15T03:47:33;12.68;;;7.38;;
74245;SDS011;62601;51.044;13.788;2024-01-15T03:49:54;13.38;;;7.57;;
74245;SDS011;62601;51.044;13.788;2024-01-15T03:52:17;14.65;;;8.05;;
74245;SDS011;62601;51.044;13.788;2024-01-15T03:54:38;15.23;;;7.10;;
74245;SDS011;62601;51.044;13.788;2024-01-15T03:57:00;12.02;;;7.60;;
74245;SDS011;62601;51.044;13.788;2024-01-15T03:59:21;12.52;;;8.20;;
74245;SDS011;62601;51.044;13.788;2024-01-15T04:01:47;15.07;;;7.63;;
74245;SDS011;62601;51.044;13.788;2024-01-15T04:04:09;12.23;;;7.40;;
74245;SDS011;62601;51.044;13.788;2024-01-15T04:06:30;11.38;;;7.10;;
74245;SDS011;62601;51.044;13.788;2024-01-15T04:08:52;15.05;;;8.02;;
74245;SDS011;62601;51.044;13.788;2024-01-15T04:11:13;15.32;;;7.38;;
74245;SDS011;62601;51.044;13.788;2024-01-15T04:13:35;13.15;;;7.35;;
74245;SDS011;62601;51.044;13.788;2024-01-15T04:15:56;12.68;;;7.28;;
74245;SDS011;62601;51.044;13.788;2024-01-15T04:18:17;14.10;;;8.00;;
74245;SDS011;62601;51.044;13.788;2024-01-15T04:20:38;12.85;;;7.65;;
74245;SDS011;62601;51.044;13.788;2024-01-15T04:23:00;14.77;;;8.02;;
74245;SDS011;62601;51.044;13.788;2024-01-15T04:25:21;12.68;;;7.55;;
74245;SDS011;62601;51.044;13.788;2024-01-15T04:27:42;13.23;;;7.22;;
74245;SDS011;62601;51.044;13.788;2024-01-15T04:30:04;13.57;;;8.05;;
74245;SDS011;62601;51.044;13.788;2024-01-15T04:32:25;16.10;;;8.38;;
74245;SDS011;62601;51.044;13.788;2024-01-15T04:34:47;12.40;;;6.82;;
74245;SDS011;62601;51.044;13.788;2024-01-15T04:37:08;13.88;;;7.93;;
74245;SDS011;62601;51.044;13.788;2024-01-15T04:39:30;11.88;;;8.05;;
74245;SDS011;62601;51.044;13.788;2024-01-15T04:41:51;12.23;;;6.97;;
74245;SDS011;62601;51.044;13.788;2024-01-15T04:44:12;13.55;;;8.15;;
74245;SDS011;62601;51.044;13.788;2024-01-15T04:46:34;14.45;;;7.22;;
74245;SDS011;62601;51.044;13.788;2024-01-15T04:48:55;13.25;;;8.27;;
74245;SDS011;62601;51.044;13.788;2024-01-15T04:51:16;12.30;;;7.03;;
74245;SDS011;62601;51.044;13.788;2024-01-15T04:53:38;11.57;;;7.80;;
74245;SDS011;62601;51.044;13.788;2024-01-15T04:55:58;13.45;;;7.13;;
74245;SDS011;62601;51.044;13.788;2024-01-15T04:58:18;15.90;;;7.65;;
74245;SDS011;62601;51.044;13.788;2024-01-15T05:00:38;13.95;;;7.15;;
74245;SDS011;62601;51.044;13.788;2024-01-15T05:02:59;14.15;;;7.60;;
74245;SDS011;62601;51.044;13.788;2024-01-15T05:05:21;14.52;;;7.40;;
74245;SDS011;62601;51.044;13.788;2024-01-15T05:07:43;15.07;;;7.03;;
74245;SDS011;62601;51.044;13.788;2024-01-15T05:10:04;13.55;;;6.90;;
74245;SDS011;62601;51.044;13.788;2024-01-15T05:12:26;17.15;;;7.80;;
74245;SDS011;62601;51.044;13.788;2024-01-15T05:14:46;12.43;;;6.40;;
74245;SDS011;62601;51.044;13.788;2024-01-15T05:17:07;17.00;;;8.05;;
74245;SDS011;62601;51.044;13.788;2024-01-15T05:19:29;11.43;;;7.22;;
74245;SDS011;62601;51.044;13.788;2024-01-15T05:21:50;13.10;;;7.20;;
74245;SDS011;62601;51.044;13.788;2024-01-15T05:24:11;14.02;;;7.57;;
74245;SDS011;62601;51.044;13.788;2024-01-15T05:26:33;14.73;;;7.47;;
74245;SDS011;62601;51.044;13.788;2024-01-15T05:28:54;13.82;;;7.95;;
74245;SDS011;62601;51.044;13.788;2024-01-15T05:31:16;12.98;;;7.38;;
74245;SDS011;62601;51.044;13.788;2024-01-15T05:33:37;10.13;;;6.38;;
74245;SDS011;62601;51.044;13.788;2024-01-15T05:35:59;11.40;;;7.13;;
74245;SDS011;62601;51.044;13.788;2024-01-15T05:38:20;16.48;;;6.93;;
74245;SDS011;62601;51.044;13.788;2024-01-15T05:40:42;12.10;;;7.38;;
74245;SDS011;62601;51.044;13.788;2024-01-15T05:43:04;12.02;;;6.68;;
74245;SDS011;62601;51.044;13.788;2024-01-15T05:45:25;11.23;;;6.32;;
74245;SDS011;62601;51.044;13.788;2024-01-15T05:47:47;15.63;;;7.47;;
74245;SDS011;62601;51.044;13.788;2024-01-15T05:50:08;13.57;;;7.30;;
74245;SDS011;62601;51.044;13.788;2024-01-15T05:52:29;14.45;;;7.00;;
74245;SDS011;62601;51.044;13.788;2024-01-15T05:54:51;12.95;;;7.15;;
74245;SDS011;62601;51.044;13.788;2024-01-15T05:57:12;10.55;;;6.40;;
74245;SDS011;62601;51.044;13.788;2024-01-15T05:59:34;13.90;;;6.82;;
74245;SDS011;62601;51.044;13.788;2024-01-15T06:01:55;10.93;;;6.63;;
74245;SDS011;62601;51.044;13.788;2024-01-15T06:04:16;13.70;;;7.85;;
74245;SDS011;62601;51.044;13.788;2024-01-15T06:06:38;15.85;;;6.70;;
74245;SDS011;62601;51.044;13.788;2024-01-15T06:08:59;19.25;;;7.55;;
74245;SDS011;62601;51.044;13.788;2024-01-15T06:11:20;14.93;;;7.43;;
74245;SDS011;62601;51.044;13.788;2024-01-15T06:13:42;16.58;;;7.25;;
74245;SDS011;62601;51.044;13.788;2024-01-15T06:16:11;11.13;;;6.25;;
74245;SDS011;62601;51.044;13.788;2024-01-15T06:18:32;11.93;;;7.10;;
74245;SDS011;62601;51.044;13.788;2024-01-15T06:20:54;17.02;;;6.38;;
74245;SDS011;62601;51.044;13.788;2024-01-15T06:23:15;11.98;;;6.70;;
74245;SDS011;62601;51.044;13.788;2024-01-15T06:25:36;11.88;;;5.95;;
74245;SDS011;62601;51.044;13.788;2024-01-15T06:27:57;14.27;;;7.63;;
74245;SDS011;62601;51.044;13.788;2024-01-15T06:30:19;10.30;;;6.43;;
74245;SDS011;62601;51.044;13.788;2024-01-15T06:32:40;14.52;;;6.35;;
74245;SDS011;62601;51.044;13.788;2024-01-15T06:35:01;8.90;;;5.25;;
74245;SDS011;62601;51.044;13.788;2024-01-15T06:37:23;12.00;;;5.75;;
74245;SDS011;62601;51.044;13.788;2024-01-15T06:39:45;13.00;;;5.95;;
74245;SDS011;62601;51.044;13.788;2024-01-15T06:42:06;12.02;;;5.88;;
74245;SDS011;62601;51.044;13.788;2024-01-15T06:44:27;13.65;;;6.72;;
74245;SDS011;62601;51.044;13.788;2024-01-15T06:46:49;11.80;;;6.25;;
74245;SDS011;62601;51.044;13.788;2024-01-15T06:49:10;8.60;;;5.70;;
74245;SDS011;62601;51.044;13.788;2024-01-15T06:51:30;10.98;;;5.90;;
74245;SDS011;62601;51.044;13.788;2024-01-15T06:53:51;11.10;;;6.53;;
74245;SDS011;62601;51.044;13.788;2024-01-15T06:56:11;11.90;;;5.30;;
74245;SDS011;62601;51.044;13.788;2024-01-15T06:58:33;10.98;;;5.65;;
74245;SDS011;62601;51.044;13.788;2024-01-15T07:00:53;14.05;;;6.50;;
74245;SDS011;62601;51.044;13.788;2024-01-15T07:03:14;10.48;;;5.63;;
74245;SDS011;62601;51.044;13.788;2024-01-15T07:05:36;13.75;;;6.50;;
74245;SDS011;62601;51.044;13.788;2024-01-15T07:07:57;11.90;;;6.32;;
74245;SDS011;62601;51.044;13.788;2024-01-15T07:10:18;10.05;;;5.10;;
74245;SDS011;62601;51.044;13.788;2024-01-15T07:12:42;10.00;;;5.43;;
74245;SDS011;62601;51.044;13.788;2024-01-15T07:15:05;8.80;;;5.28;;
74245;SDS011;62601;51.044;13.788;2024-01-15T07:17:25;8.90;;;5.40;;
74245;SDS011;62601;51.044;13.788;2024-01-15T07:19:47;9.13;;;4.95;;
74245;SDS011;62601;51.044;13.788;2024-01-15T07:22:08;10.35;;;5.00;;
74245;SDS011;62601;51.044;13.788;2024-01-15T07:24:30;12.65;;;5.90;;
74245;SDS011;62601;51.044;13.788;2024-01-15T07:26:51;9.30;;;5.53;;
74245;SDS011;62601;51.044;13.788;2024-01-15T07:29:13;10.25;;;5.50;;
74245;SDS011;62601;51.044;13.788;2024-01-15T07:31:33;9.45;;;4.85;;
74245;SDS011;62601;51.044;13.788;2024-01-15T07:33:54;10.40;;;5.40;;
74245;SDS011;62601;51.044;13.788;2024-01-15T07:36:19;8.63;;;4.60;;
74245;SDS011;62601;51.044;13.788;2024-01-15T07:38:40;8.57;;;5.95;;
74245;SDS011;62601;51.044;13.788;2024-01-15T07:41:01;13.05;;;4.68;;
74245;SDS011;62601;51.044;13.788;2024-01-15T07:43:22;8.70;;;5.15;;
74245;SDS011;62601;51.044;13.788;2024-01-15T07:45:44;7.57;;;4.43;;
74245;SDS011;62601;51.044;13.788;2024-01-15T07:48:05;12.55;;;5.55;;
74245;SDS011;62601;51.044;13.788;2024-01-15T07:50:25;9.40;;;5.70;;
74245;SDS011;62601;51.044;13.788;2024-01-15T07:52:47;11.27;;;5.70;;
74245;SDS011;62601;51.044;13.788;2024-01-15T07:55:07;9.68;;;6.32;;
74245;SDS011;62601;51.044;13.788;2024-01-15T07:57:29;8.40;;;4.55;;
74245;SDS011;62601;51.044;13.788;2024-01-15T07:59:50;10.05;;;5.40;;
74245;SDS011;62601;51.044;13.788;2024-01-15T08:02:15;8.90;;;5.38;;
74245;SDS011;62601;51.044;13.788;2024-01-15T08:04:39;10.30;;;5.22;;
74245;SDS011;62601;51.044;13.788;2024-01-15T08:07:00;8.07;;;5.40;;
74245;SDS011;62601;51.044;13.788;2024-01-15T08:09:24;11.25;;;5.53;;
74245;SDS011;62601;51.044;13.788;2024-01-15T08:11:46;8.90;;;5.55;;
74245;SDS011;62601;51.044;13.788;2024-01-15T08:14:07;11.38;;;5.57;;
74245;SDS011;62601;51.044;13.788;2024-01-15T08:16:29;10.57;;;5.03;;
74245;SDS011;62601;51.044;13.788;2024-01-15T08:18:50;7.88;;;4.95;;
74245;SDS011;62601;51.044;13.788;2024-01-15T08:21:10;11.45;;;5.50;;
74245;SDS011;62601;51.044;13.788;2024-01-15T08:23:31;9.82;;;4.97;;
74245;SDS011;62601;51.044;13.788;2024-01-15T08:25:53;8.35;;;5.40;;
74245;SDS011;62601;51.044;13.788;2024-01-15T08:28:14;9.40;;;5.70;;
74245;SDS011;62601;51.044;13.788;2024-01-15T08:30:34;10.20;;;5.68;;
74245;SDS011;62601;51.044;13.788;2024-01-15T08:32:56;10.80;;;5.55;;
74245;SDS011;62601;51.044;13.788;2024-01-15T08:35:17;11.25;;;4.45;;
74245;SDS011;62601;51.044;13.788;2024-01-15T08:37:38;12.50;;;6.40;;
74245;SDS011;62601;51.044;13.788;2024-01-15T08:40:00;8.70;;;5.07;;
74245;SDS011;62601;51.044;13.788;2024-01-15T08:42:21;9.18;;;4.68;;
74245;SDS011;62601;51.044;13.788;2024-01-15T08:44:45;9.30;;;5.13;;
74245;SDS011;62601;51.044;13.788;2024-01-15T08:47:06;7.88;;;5.05;;
74245;SDS011;62601;51.044;13.788;2024-01-15T08:49:28;11.85;;;5.68;;
74245;SDS011;62601;51.044;13.788;2024-01-15T08:51:49;11.13;;;4.80;;
74245;SDS011;62601;51.044;13.788;2024-01-15T08:54:11;8.38;;;4.18;;
74245;SDS011;62601;51.044;13.788;2024-01-15T08:56:32;6.63;;;4.20;;
74245;SDS011;62601;51.044;13.788;2024-01-15T08:58:54;11.10;;;4.07;;
74245;SDS011;62601;51.044;13.788;2024-01-15T09:01:15;10.00;;;5.00;;
74245;SDS011;62601;51.044;13.788;2024-01-15T09:03:35;10.40;;;5.35;;
74245;SDS011;62601;51.044;13.788;2024-01-15T09:05:55;11.52;;;5.00;;
74245;SDS011;62601;51.044;13.788;2024-01-15T09:08:16;6.68;;;4.40;;
74245;SDS011;62601;51.044;13.788;2024-01-15T09:10:37;10.18;;;5.10;;
74245;SDS011;62601;51.044;13.788;2024-01-15T09:12:58;7.53;;;4.07;;
74245;SDS011;62601;51.044;13.788;2024-01-15T09:15:20;7.30;;;4.80;;
74245;SDS011;62601;51.044;13.788;2024-01-15T09:17:41;6.03;;;3.92;;
74245;SDS011;62601;51.044;13.788;2024-01-15T09:20:05;11.80;;;4.30;;
74245;SDS011;62601;51.044;13.788;2024-01-15T09:22:27;6.80;;;4.28;;
74245;SDS011;62601;51.044;13.788;2024-01-15T09:24:48;7.82;;;4.55;;
74245;SDS011;62601;51.044;13.788;2024-01-15T09:27:10;8.07;;;4.43;;
74245;SDS011;62601;51.044;13.788;2024-01-15T09:29:31;7.03;;;4.00;;
74245;SDS011;62601;51.044;13.788;2024-01-15T09:31:51;6.15;;;3.70;;
74245;SDS011;62601;51.044;13.788;2024-01-15T09:34:13;6.40;;;3.65;;
74245;SDS011;62601;51.044;13.788;2024-01-15T09:36:39;6.88;;;3.50;;
74245;SDS011;62601;51.044;13.788;2024-01-15T09:39:00;7.80;;;4.32;;
74245;SDS011;62601;51.044;13.788;2024-01-15T09:41:21;7.50;;;3.72;;
74245;SDS011;62601;51.044;13.788;2024-01-15T09:43:46;7.38;;;4.03;;
74245;SDS011;62601;51.044;13.788;2024-01-15T09:46:07;10.60;;;5.20;;
74245;SDS011;62601;51.044;13.788;2024-01-15T09:48:28;7.50;;;4.43;;
74245;SDS011;62601;51.044;13.788;2024-01-15T09:50:50;9.27;;;4.03;;
74245;SDS011;62601;51.044;13.788;2024-01-15T09:53:11;5.40;;;3.80;;
74245;SDS011;62601;51.044;13.788;2024-01-15T09:55:32;7.45;;;3.92;;
74245;SDS011;62601;51.044;13.788;2024-01-15T09:57:54;9.15;;;3.83;;
74245;SDS011;62601;51.044;13.788;2024-01-15T10:00:17;7.60;;;4.10;;
74245;SDS011;62601;51.044;13.788;2024-01-15T10:02:38;4.03;;;3.40;;
74245;SDS011;62601;51.044;13.788;2024-01-15T10:05:00;6.45;;;4.30;;
74245;SDS011;62601;51.044;13.788;2024-01-15T10:07:21;8.15;;;4.15;;
74245;SDS011;62601;51.044;13.788;2024-01-15T10:09:45;8.77;;;5.15;;
74245;SDS011;62601;51.044;13.788;2024-01-15T10:12:06;8.60;;;4.55;;
74245;SDS011;62601;51.044;13.788;2024-01-15T10:14:28;7.10;;;3.70;;
74245;SDS011;62601;51.044;13.788;2024-01-15T10:16:51;11.43;;;4.75;;
74245;SDS011;62601;51.044;13.788;2024-01-15T10:19:12;8.68;;;3.25;;
74245;SDS011;62601;51.044;13.788;2024-01-15T10:21:32;6.22;;;4.10;;
74245;SDS011;62601;51.044;13.788;2024-01-15T10:23:54;9.50;;;3.45;;
74245;SDS011;62601;51.044;13.788;2024-01-15T10:26:15;7.47;;;4.13;;
74245;SDS011;62601;51.044;13.788;2024-01-15T10:28:36;9.70;;;3.92;;
74245;SDS011;62601;51.044;13.788;2024-01-15T10:30:58;8.20;;;3.90;;
74245;SDS011;62601;51.044;13.788;2024-01-15T10:33:23;6.03;;;3.50;;
74245;SDS011;62601;51.044;13.788;2024-01-15T10:35:44;6.93;;;3.67;;
74245;SDS011;62601;51.044;13.788;2024-01-15T10:38:05;6.28;;;3.63;;
74245;SDS011;62601;51.044;13.788;2024-01-15T10:40:27;7.85;;;3.85;;
74245;SDS011;62601;51.044;13.788;2024-01-15T10:42:48;7.03;;;4.35;;
74245;SDS011;62601;51.044;13.788;2024-01-15T10:45:10;7.32;;;3.67;;
74245;SDS011;62601;51.044;13.788;2024-01-15T10:47:32;6.35;;;3.35;;
74245;SDS011;62601;51.044;13.788;2024-01-15T10:49:53;6.53;;;4.13;;
74245;SDS011;62601;51.044;13.788;2024-01-15T10:52:14;6.45;;;3.55;;
74245;SDS011;62601;51.044;13.788;2024-01-15T10:54:36;8.40;;;3.95;;
74245;SDS011;62601;51.044;13.788;2024-01-15T10:56:59;6.20;;;4.13;;
74245;SDS011;62601;51.044;13.788;2024-01-15T10:59:21;7.38;;;4.07;;
74245;SDS011;62601;51.044;13.788;2024-01-15T11:01:42;6.63;;;4.07;;
74245;SDS011;62601;51.044;13.788;2024-01-15T11:04:06;6.63;;;3.33;;
74245;SDS011;62601;51.044;13.788;2024-01-15T11:06:28;4.65;;;3.00;;
74245;SDS011;62601;51.044;13.788;2024-01-15T11:09:00;6.40;;;3.92;;
74245;SDS011;62601;51.044;13.788;2024-01-15T11:11:22;6.40;;;3.70;;
74245;SDS011;62601;51.044;13.788;2024-01-15T11:13:49;7.80;;;4.13;;
74245;SDS011;62601;51.044;13.788;2024-01-15T11:16:11;11.35;;;4.15;;
74245;SDS011;62601;51.044;13.788;2024-01-15T11:18:36;5.90;;;3.58;;
74245;SDS011;62601;51.044;13.788;2024-01-15T11:23:46;7.20;;;3.33;;
74245;SDS011;62601;51.044;13.788;2024-01-15T11:26:53;6.28;;;3.53;;
74245;SDS011;62601;51.044;13.788;2024-01-15T11:28:51;5.95;;;3.53;;
74245;SDS011;62601;51.044;13.788;2024-01-15T11:31:13;8.75;;;5.22;;
74245;SDS011;62601;51.044;13.788;2024-01-15T11:33:34;9.57;;;4.65;;
74245;SDS011;62601;51.044;13.788;2024-01-15T11:35:56;8.55;;;4.10;;
74245;SDS011;62601;51.044;13.788;2024-01-15T11:38:30;7.20;;;3.50;;
74245;SDS011;62601;51.044;13.788;2024-01-15T11:40:51;10.48;;;4.72;;
74245;SDS011;62601;51.044;13.788;2024-01-15T11:43:12;5.00;;;3.30;;
74245;SDS011;62601;51.044;13.788;2024-01-15T11:45:34;6.55;;;3.85;;
74245;SDS011;62601;51.044;13.788;2024-01-15T11:50:25;7.38;;;4.18;;
74245;SDS011;62601;51.044;13.788;2024-01-15T11:52:59;6.70;;;3.70;;
74245;SDS011;62601;51.044;13.788;2024-01-15T11:55:38;9.07;;;4.65;;
74245;SDS011;62601;51.044;13.788;2024-01-15T11:58:00;6.05;;;4.18;;
74245;SDS011;62601;51.044;13.788;2024-01-15T12:00:22;5.00;;;3.60;;
74245;SDS011;62601;51.044;13.788;2024-01-15T12:02:45;5.93;;;3.33;;
74245;SDS011;62601;51.044;13.788;2024-01-15T12:05:05;6.28;;;4.03;;
74245;SDS011;62601;51.044;13.788;2024-01-15T12:07:27;8.68;;;4.60;;
74245;SDS011;62601;51.044;13.788;2024-01-15T12:09:47;8.77;;;4.05;;
74245;SDS011;62601;51.044;13.788;2024-01-15T12:12:09;9.65;;;4.13;;
74245;SDS011;62601;51.044;13.788;2024-01-15T12:14:33;8.93;;;3.83;;
74245;SDS011;62601;51.044;13.788;2024-01-15T12:16:54;8.95;;;5.03;;
74245;SDS011;62601;51.044;13.788;2024-01-15T12:19:16;8.13;;;4.15;;
74245;SDS011;62601;51.044;13.788;2024-01-15T12:21:39;7.15;;;3.10;;
74245;SDS011;62601;51.044;13.788;2024-01-15T12:24:00;9.02;;;3.95;;
74245;SDS011;62601;51.044;13.788;2024-01-15T12:26:22;6.47;;;4.00;;
74245;SDS011;62601;51.044;13.788;2024-01-15T12:28:43;8.13;;;3.60;;
74245;SDS011;62601;51.044;13.788;2024-01-15T12:31:07;6.80;;;3.60;;
74245;SDS011;62601;51.044;13.788;2024-01-15T12:33:32;8.40;;;4.82;;
74245;SDS011;62601;51.044;13.788;2024-01-15T12:35:54;6.15;;;3.63;;
74245;SDS011;62601;51.044;13.788;2024-01-15T12:38:18;5.13;;;3.88;;
74245;SDS011;62601;51.044;13.788;2024-01-15T12:40:40;6.57;;;3.85;;
74245;SDS011;62601;51.044;13.788;2024-01-15T12:43:01;7.40;;;3.50;;
74245;SDS011;62601;51.044;13.788;2024-01-15T12:45:24;7.85;;;3.70;;
74245;SDS011;62601;51.044;13.788;2024-01-15T12:47:46;7.63;;;4.30;;
74245;SDS011;62601;51.044;13.788;2024-01-15T12:50:11;7.15;;;3.85;;
74245;SDS011;62601;51.044;13.788;2024-01-15T12:52:32;7.40;;;4.47;;
74245;SDS011;62601;51.044;13.788;2024-01-15T12:54:53;7.15;;;4.03;;
74245;SDS011;62601;51.044;13.788;2024-01-15T12:57:15;6.25;;;3.60;;
74245;SDS011;62601;51.044;13.788;2024-01-15T12:59:37;8.43;;;4.38;;
74245;SDS011;62601;51.044;13.788;2024-01-15T13:01:57;5.70;;;3.72;;
74245;SDS011;62601;51.044;13.788;2024-01-15T13:04:21;7.32;;;4.50;;
74245;SDS011;62601;51.044;13.788;2024-01-15T13:06:42;9.75;;;4.32;;
74245;SDS011;62601;51.044;13.788;2024-01-15T13:09:03;8.50;;;5.45;;
74245;SDS011;62601;51.044;13.788;2024-01-15T13:11:25;6.78;;;4.30;;
74245;SDS011;62601;51.044;13.788;2024-01-15T13:13:46;11.13;;;6.47;;
74245;SDS011;62601;51.044;13.788;2024-01-15T13:16:07;8.23;;;4.38;;
74245;SDS011;62601;51.044;13.788;2024-01-15T13:18:29;6.72;;;2.90;;
74245;SDS011;62601;51.044;13.788;2024-01-15T13:20:53;8.10;;;4.82;;
74245;SDS011;62601;51.044;13.788;2024-01-15T13:23:15;7.70;;;4.40;;
74245;SDS011;62601;51.044;13.788;2024-01-15T13:25:36;7.28;;;4.07;;
74245;SDS011;62601;51.044;13.788;2024-01-15T13:27:57;8.63;;;4.70;;
74245;SDS011;62601;51.044;13.788;2024-01-15T13:30:19;7.10;;;4.03;;
74245;SDS011;62601;51.044;13.788;2024-01-15T13:32:40;8.00;;;4.22;;
74245;SDS011;62601;51.044;13.788;2024-01-15T13:35:01;6.13;;;4.30;;
74245;SDS011;62601;51.044;13.788;2024-01-15T13:37:22;7.95;;;4.60;;
74245;SDS011;62601;51.044;13.788;2024-01-15T13:39:43;11.52;;;4.75;;
74245;SDS011;62601;51.044;13.788;2024-01-15T13:42:04;10.90;;;4.68;;
74245;SDS011;62601;51.044;13.788;2024-01-15T13:44:26;9.25;;;4.93;;
74245;SDS011;62601;51.044;13.788;2024-01-15T13:46:47;6.70;;;4.50;;
74245;SDS011;62601;51.044;13.788;2024-01-15T13:49:12;10.85;;;5.10;;
74245;SDS011;62601;51.044;13.788;2024-01-15T13:51:33;9.48;;;4.65;;
74245;SDS011;62601;51.044;13.788;2024-01-15T13:53:55;7.30;;;4.35;;
74245;SDS011;62601;51.044;13.788;2024-01-15T13:56:16;8.02;;;4.43;;
74245;SDS011;62601;51.044;13.788;2024-01-15T13:58:38;6.90;;;3.58;;
74245;SDS011;62601;51.044;13.788;2024-01-15T14:01:00;9.27;;;4.40;;